Time;durP1;ratioP1;P1;durP2;ratioP2;P2;SDS_P1;SDS_P2;PMS_P1;PMS_P2;Temp;Humidity;BMP_temperature;BMP_pressure;BME280_temperature;BME280_humidity;BME280_pressure;Samples;Min_cycle;Max_cycle;Signal;HPM_P1;HPM_P2
2022/04/17 00:00:20;;;;;;;4.57;3.03;;;;;;;10.54;42.67;100252.13;4143946;28;20257;-61
2022/04/17 00:02:22;;;;;;;4.00;3.27;;;;;;;10.81;41.96;100261.97;4146750;28;20308;-60
2022/04/17 00:04:25;;;;;;;3.57;3.10;;;;;;;10.28;42.78;100285.66;4144303;28;20229;-59
2022/04/17 00:06:27;;;;;;;4.53;2.90;;;;;;;10.29;42.80;100276.69;4142470;28;20229;-61
2022/04/17 00:08:28;;;;;;;7.60;3.43;;;;;;;10.80;42.04;100260.31;4137882;28;20320;-61
2022/04/17 00:10:30;;;;;;;3.40;2.80;;;;;;;10.33;42.32;100294.03;4164521;28;20230;-60
2022/04/17 00:12:32;;;;;;;4.80;3.00;;;;;;;10.13;43.26;100258.72;4168416;28;20260;-61
2022/04/17 00:14:34;;;;;;;6.13;3.27;;;;;;;10.44;42.71;100257.47;4165689;28;20275;-62
2022/04/17 00:16:36;;;;;;;3.63;2.90;;;;;;;9.41;44.35;100296.16;4167316;28;20259;-60
2022/04/17 00:18:37;;;;;;;3.67;2.93;;;;;;;9.98;43.84;100271.59;4161835;28;20233;-61
2022/04/17 00:20:39;;;;;;;4.53;3.10;;;;;;;10.21;43.57;100264.97;4160116;28;20607;-60
2022/04/17 00:22:41;;;;;;;3.63;3.20;;;;;;;9.78;43.93;100294.69;4169069;28;20687;-62
2022/04/17 00:24:43;;;;;;;3.50;3.20;;;;;;;9.44;44.88;100272.00;4163238;28;20366;-61
2022/04/17 00:26:44;;;;;;;5.37;3.40;;;;;;;9.23;45.63;100245.56;4167944;28;20289;-61
2022/04/17 00:28:46;;;;;;;3.93;3.13;;;;;;;9.66;44.75;100236.41;4164099;28;20272;-60
2022/04/17 00:30:48;;;;;;;7.40;3.60;;;;;;;9.33;45.12;100261.50;4164323;28;20240;-61
2022/04/17 00:32:50;;;;;;;5.03;3.10;;;;;;;9.59;44.28;100272.47;4162104;28;20328;-61
2022/04/17 00:34:52;;;;;;;4.93;3.60;;;;;;;9.56;45.13;100232.88;4161286;28;20564;-61
2022/04/17 00:36:53;;;;;;;6.03;3.60;;;;;;;9.58;44.88;100257.47;4162131;28;20233;-61
2022/04/17 00:38:55;;;;;;;4.60;3.63;;;;;;;10.25;43.83;100239.78;4157706;28;20332;-61
2022/04/17 00:40:56;;;;;;;3.70;3.30;;;;;;;8.83;46.18;100272.16;4161511;28;20257;-62
2022/04/17 00:42:59;;;;;;;3.97;3.57;;;;;;;9.54;45.23;100234.84;4161419;28;20389;-62
2022/04/17 00:45:01;;;;;;;4.10;3.57;;;;;;;9.62;44.79;100231.50;4163339;28;20231;-62
2022/04/17 00:47:08;;;;;;;4.60;3.57;;;;;;;8.94;45.97;100253.50;4164640;28;20653;-61
2022/04/17 00:49:10;;;;;;;3.90;3.47;;;;;;;8.99;46.58;100215.97;4142628;28;20309;-61
2022/04/17 00:51:13;;;;;;;4.13;3.53;;;;;;;9.39;45.53;100217.69;4145586;28;20343;-61
2022/04/17 00:53:15;;;;;;;3.57;3.27;;;;;;;9.11;45.44;100278.53;4149106;28;20236;-61
2022/04/17 00:55:17;;;;;;;3.97;3.50;;;;;;;8.92;46.33;100218.31;4146706;28;20263;-61
2022/04/17 00:57:18;;;;;;;6.30;3.40;;;;;;;9.44;45.60;100228.72;4145577;28;20764;-64
2022/04/17 00:59:22;;;;;;;3.60;3.30;;;;;;;9.34;45.92;100226.03;4147074;28;20316;-59
2022/04/17 01:01:24;;;;;;;3.93;3.53;;;;;;;9.92;44.90;100197.78;4149232;28;20236;-61
2022/04/17 01:03:28;;;;;;;5.07;3.63;;;;;;;9.84;44.72;100225.91;4156189;28;20443;-61
2022/04/17 01:05:30;;;;;;;4.67;3.90;;;;;;;9.94;44.86;100217.94;4146420;28;20287;-62
2022/04/17 01:07:32;;;;;;;3.70;3.40;;;;;;;9.62;45.19;100226.19;4150116;28;20287;-61
2022/04/17 01:09:35;;;;;;;6.27;3.70;;;;;;;9.35;45.45;100229.53;4142562;28;20343;-60
2022/04/17 01:11:40;;;;;;;4.60;3.43;;;;;;;9.31;46.06;100207.75;4142778;28;20258;-62
2022/04/17 01:13:43;;;;;;;4.63;3.63;;;;;;;9.26;46.19;100209.97;4144494;28;20299;-62
2022/04/17 01:15:45;;;;;;;4.10;3.50;;;;;;;8.82;46.97;100220.13;4144125;28;20263;-60
2022/04/17 01:17:47;;;;;;;3.70;3.40;;;;;;;8.65;47.57;100193.28;4147225;28;20237;-62
2022/04/17 01:19:50;;;;;;;5.50;3.37;;;;;;;9.42;46.07;100188.16;4146129;28;20230;-61
2022/04/17 01:21:53;;;;;;;4.30;3.90;;;;;;;8.94;46.68;100188.03;4143216;28;20753;-60
2022/04/17 01:28:36;;;;;;;5.20;4.37;;;;;;;8.57;47.63;100209.00;4148880;28;20698;-62
2022/04/17 01:30:39;;;;;;;4.10;3.70;;;;;;;7.76;49.30;100207.06;4145485;28;20316;-61
2022/04/17 01:32:41;;;;;;;5.97;3.87;;;;;;;7.73;49.57;100180.88;4149246;28;20233;-62
2022/04/17 01:34:43;;;;;;;5.17;3.63;;;;;;;7.03;50.17;100200.78;4147696;28;20252;-60
2022/04/17 01:36:46;;;;;;;5.73;3.60;;;;;;;7.26;49.66;100189.16;4158908;28;20665;-61
2022/04/17 01:38:47;;;;;;;3.80;3.50;;;;;;;6.73;50.85;100171.38;4144832;28;20377;-62
2022/04/17 01:40:49;;;;;;;5.07;3.37;;;;;;;6.81;50.55;100183.16;4144223;28;20275;-61
2022/04/17 01:42:51;;;;;;;4.47;3.73;;;;;;;6.73;51.14;100167.91;4143078;28;20269;-61
2022/04/17 01:44:52;;;;;;;4.40;3.77;;;;;;;6.93;50.61;100176.06;4141449;28;20274;-59
2022/04/17 01:46:55;;;;;;;4.03;3.47;;;;;;;7.30;49.76;100175.69;4157347;28;20268;-61
2022/04/17 01:48:57;;;;;;;4.03;3.50;;;;;;;6.91;50.26;100187.59;4141054;28;20226;-61
2022/04/17 01:50:58;;;;;;;3.70;3.40;;;;;;;7.03;50.25;100146.09;4150715;28;20652;-60
2022/04/17 01:53:00;;;;;;;5.47;3.40;;;;;;;5.91;52.76;100166.41;4146573;28;20256;-59
2022/04/17 01:55:03;;;;;;;5.57;3.60;;;;;;;7.43;50.41;100104.91;4142100;28;20233;-61
2022/04/17 01:57:04;;;;;;;13.10;3.93;;;;;;;7.06;50.05;100139.72;4147757;28;20264;-61
2022/04/17 01:59:07;;;;;;;5.30;3.50;;;;;;;6.16;52.03;100153.91;4146591;28;20319;-61
2022/04/17 02:01:08;;;;;;;4.40;3.37;;;;;;;7.40;50.22;100099.88;4141602;28;20226;-59
2022/04/17 02:03:10;;;;;;;4.60;3.10;;;;;;;7.91;49.41;100104.31;4146900;28;20454;-61
2022/04/17 02:05:12;;;;;;;3.97;3.57;;;;;;;6.62;50.95;100158.22;4162844;28;20326;-61
2022/04/17 02:07:14;;;;;;;4.80;3.60;;;;;;;5.73;53.09;100155.47;4160659;28;21025;-60
2022/04/17 02:09:17;;;;;;;5.57;3.80;;;;;;;7.44;50.19;100117.16;4160685;28;20735;-62
2022/04/17 02:11:19;;;;;;;5.10;3.70;;;;;;;6.47;50.73;100162.06;4161765;28;20551;-61
2022/04/17 02:13:23;;;;;;;5.37;3.40;;;;;;;7.15;50.82;100120.44;4163660;28;20233;-61
2022/04/17 02:15:25;;;;;;;5.87;4.00;;;;;;;7.80;49.29;100109.69;4172159;28;20367;-61
2022/04/17 02:17:27;;;;;;;4.00;3.60;;;;;;;7.92;49.28;100098.06;4156965;28;20327;-62
2022/04/17 02:19:28;;;;;;;3.77;3.40;;;;;;;6.42;51.17;100164.25;4158817;28;20693;-61
2022/04/17 02:21:31;;;;;;;3.70;3.33;;;;;;;7.27;49.45;100145.03;4157753;28;20259;-61
2022/04/17 02:23:32;;;;;;;6.60;3.50;;;;;;;8.44;47.98;100097.09;4161650;28;20292;-61
2022/04/17 02:25:34;;;;;;;5.03;3.60;;;;;;;7.91;48.75;100106.94;4159300;28;20239;-61
2022/04/17 02:27:35;;;;;;;6.20;4.00;;;;;;;7.33;49.42;100159.53;4156669;28;20261;-60
2022/04/17 02:29:37;;;;;;;5.23;3.43;;;;;;;7.93;48.54;100114.75;4157535;28;20758;-60
2022/04/17 02:31:39;;;;;;;4.27;3.87;;;;;;;8.48;47.17;100104.66;4157685;28;20282;-61
2022/04/17 02:33:40;;;;;;;4.03;3.50;;;;;;;7.32;49.31;100147.28;4157589;28;20656;-61
2022/04/17 02:35:42;;;;;;;3.97;3.57;;;;;;;8.24;47.65;100134.13;4158604;28;20268;-61
2022/04/17 02:37:43;;;;;;;5.17;3.63;;;;;;;8.32;47.23;100136.13;4158269;28;20320;-61
2022/04/17 02:39:45;;;;;;;4.03;3.60;;;;;;;8.69;46.46;100122.25;4158275;28;20311;-61
2022/04/17 02:41:47;;;;;;;3.73;3.40;;;;;;;8.43;46.93;100137.84;4161207;28;21049;-61
2022/04/17 02:43:48;;;;;;;6.57;4.10;;;;;;;8.57;46.87;100129.50;4157943;28;20649;-61
2022/04/17 02:45:50;;;;;;;4.47;3.40;;;;;;;7.77;48.28;100158.44;4160819;28;20268;-61
2022/04/17 02:47:52;;;;;;;5.23;3.87;;;;;;;8.46;46.99;100137.56;4157323;28;20236;-61
2022/04/17 02:49:54;;;;;;;4.07;3.70;;;;;;;8.45;46.98;100143.84;4157471;28;20237;-61
2022/04/17 02:51:56;;;;;;;4.00;3.60;;;;;;;8.11;47.65;100134.34;4159879;28;20292;-62
2022/04/17 02:53:57;;;;;;;4.37;3.70;;;;;;;8.68;46.63;100155.91;4153523;28;20948;-61
2022/04/17 02:56:00;;;;;;;4.13;3.53;;;;;;;7.65;48.86;100140.97;4160895;28;20274;-62
2022/04/17 02:58:01;;;;;;;4.63;3.77;;;;;;;8.06;47.78;100135.75;4157888;28;20228;-61
2022/04/17 03:00:08;;;;;;;4.50;3.60;;;;;;;7.94;47.79;100159.66;4161611;28;20257;-61
2022/04/17 03:06:50;;;;;;;4.43;4.03;;;;;;;7.77;48.28;100176.16;4158658;28;20320;-61
2022/04/17 03:08:52;;;;;;;5.40;3.73;;;;;;;8.16;47.88;100112.78;4157238;28;20243;-61
2022/04/17 03:10:54;;;;;;;4.37;3.90;;;;;;;7.94;47.90;100150.88;4158722;28;20290;-61
2022/04/17 03:12:56;;;;;;;5.43;4.00;;;;;;;7.98;47.71;100155.75;4158003;28;20553;-61
2022/04/17 03:14:58;;;;;;;5.27;3.90;;;;;;;8.00;48.33;100114.13;4159128;28;20237;-61
2022/04/17 03:17:00;;;;;;;7.20;4.43;;;;;;;7.35;49.20;100165.56;4157758;28;20263;-61
2022/04/17 03:19:02;;;;;;;6.30;3.63;;;;;;;7.40;48.91;100166.00;4157474;28;20227;-59
2022/04/17 03:21:04;;;;;;;5.60;3.97;;;;;;;7.98;48.58;100108.09;4157491;28;20710;-61
2022/04/17 03:23:05;;;;;;;5.10;3.97;;;;;;;8.26;47.91;100096.91;4158110;28;20270;-61
2022/04/17 03:25:08;;;;;;;5.37;3.97;;;;;;;7.61;48.98;100126.31;4159575;28;20239;-60
2022/04/17 03:27:10;;;;;;;5.53;4.20;;;;;;;7.42;49.44;100121.75;4153267;28;20315;-61
2022/04/17 03:29:11;;;;;;;4.47;4.03;;;;;;;8.15;47.60;100129.63;4159163;28;20281;-61
2022/04/17 03:31:13;;;;;;;4.27;3.87;;;;;;;7.32;49.60;100153.41;4161260;28;20232;-62
2022/04/17 03:33:15;;;;;;;5.03;3.97;;;;;;;7.86;47.87;100148.88;4158468;28;20660;-61
2022/04/17 03:35:18;;;;;;;4.47;3.93;;;;;;;7.80;48.58;100128.22;4161492;28;20262;-61
2022/04/17 03:37:20;;;;;;;6.17;4.10;;;;;;;6.91;50.06;100176.19;4156753;28;20616;-62
2022/04/17 03:39:21;;;;;;;4.87;4.20;;;;;;;8.01;48.31;100113.13;4158826;28;20232;-60
2022/04/17 03:41:23;;;;;;;7.20;4.17;;;;;;;8.06;47.59;100133.09;4178515;28;20228;-60
2022/04/17 03:43:25;;;;;;;4.67;4.10;;;;;;;7.88;48.14;100123.09;4157117;28;20705;-61
2022/04/17 03:45:27;;;;;;;5.07;3.93;;;;;;;7.90;48.32;100099.13;4163556;28;20800;-60
2022/04/17 03:47:28;;;;;;;5.37;4.53;;;;;;;7.59;48.61;100113.19;4155971;28;20829;-60
2022/04/17 03:49:31;;;;;;;4.80;4.27;;;;;;;7.54;48.72;100136.56;4156154;28;20271;-61
2022/04/17 03:51:33;;;;;;;4.90;4.23;;;;;;;8.04;47.65;100106.72;4163695;28;20260;-61
2022/04/17 03:53:34;;;;;;;4.80;4.03;;;;;;;7.51;48.56;100142.13;4160504;28;20252;-61
2022/04/17 03:55:36;;;;;;;4.80;4.30;;;;;;;7.39;48.91;100141.34;4161553;28;20259;-61
2022/04/17 03:57:39;;;;;;;5.23;4.10;;;;;;;7.40;49.48;100103.34;4165177;28;20314;-61
2022/04/17 03:59:40;;;;;;;7.77;4.37;;;;;;;7.61;49.15;100105.13;4164020;28;20251;-60
2022/04/17 04:01:42;;;;;;;5.43;4.30;;;;;;;7.62;48.44;100154.47;4167222;28;20255;-61
2022/04/17 04:03:44;;;;;;;7.30;4.40;;;;;;;7.68;48.44;100114.22;4161576;28;20232;-61
2022/04/17 04:05:46;;;;;;;5.37;4.03;;;;;;;6.91;50.52;100113.56;4162622;28;20639;-60
2022/04/17 04:07:48;;;;;;;5.47;4.33;;;;;;;7.40;49.71;100102.53;4167757;28;20688;-61
2022/04/17 04:09:51;;;;;;;4.43;4.03;;;;;;;6.32;51.34;100143.00;4160713;28;20269;-62
2022/04/17 04:11:53;;;;;;;5.93;4.20;;;;;;;6.17;51.62;100174.09;4153942;28;20627;-61
2022/04/17 04:13:55;;;;;;;4.93;4.43;;;;;;;7.08;49.81;100124.56;4160799;28;20460;-61
2022/04/17 04:15:56;;;;;;;5.17;4.00;;;;;;;6.50;51.46;100109.84;4160319;28;20752;-61
2022/04/17 04:17:58;;;;;;;4.90;4.37;;;;;;;6.37;51.01;100135.56;4159864;28;20323;-61
2022/04/17 04:20:01;;;;;;;5.50;4.27;;;;;;;6.54;50.80;100108.59;4161741;28;20259;-61
2022/04/17 04:22:03;;;;;;;4.40;4.00;;;;;;;6.53;51.26;100083.16;4160242;28;20256;-59
2022/04/17 04:24:04;;;;;;;4.90;4.13;;;;;;;6.52;50.98;100084.13;4174758;28;20236;-62
2022/04/17 04:26:06;;;;;;;5.77;4.40;;;;;;;6.32;51.63;100076.97;4160577;28;20239;-62
2022/04/17 04:30:28;;;;;;;5.30;4.33;;;;;;;5.91;52.35;100079.31;4166335;28;20248;-61
2022/04/17 04:32:30;;;;;;;6.23;4.53;;;;;;;6.01;51.54;100105.78;4162423;28;20260;-61
2022/04/17 04:34:37;;;;;;;5.00;4.33;;;;;;;6.43;50.95;100082.22;4160674;28;20228;-61
2022/04/17 04:36:39;;;;;;;6.57;4.33;;;;;;;6.00;52.47;100072.47;4161104;28;20259;-61
2022/04/17 04:38:41;;;;;;;4.90;4.40;;;;;;;6.69;51.21;100052.84;4160888;28;20263;-61
2022/04/17 04:40:42;;;;;;;7.07;4.33;;;;;;;6.07;51.90;100102.69;4155175;28;20702;-62
2022/04/17 04:42:44;;;;;;;4.77;4.27;;;;;;;5.99;51.76;100107.72;4162462;28;20235;-62
2022/04/17 04:44:47;;;;;;;5.13;4.20;;;;;;;6.39;51.70;100062.31;4160078;28;20791;-61
2022/04/17 04:46:48;;;;;;;5.33;4.70;;;;;;;6.05;52.66;100059.72;4160559;28;20259;-61
2022/04/17 04:51:10;;;;;;;5.00;4.50;;;;;;;4.79;55.46;100070.19;4159455;28;20251;-61
2022/04/17 04:53:12;;;;;;;4.80;4.30;;;;;;;4.39;56.68;100062.56;4161981;28;20770;-61
2022/04/17 04:55:14;;;;;;;4.90;4.50;;;;;;;5.76;53.04;100052.31;4160695;28;20299;-62
2022/04/17 04:57:15;;;;;;;5.70;4.23;;;;;;;6.35;52.38;100024.75;4159559;28;20229;-60
2022/04/17 04:59:17;;;;;;;4.90;4.40;;;;;;;6.42;51.79;100037.47;4161559;28;20273;-61
2022/04/17 05:01:18;;;;;;;6.07;4.27;;;;;;;6.32;51.66;100061.97;4160627;28;20783;-61
2022/04/17 05:03:20;;;;;;;5.50;4.20;;;;;;;5.19;54.22;100103.28;4160601;28;20274;-60
2022/04/17 05:05:22;;;;;;;7.27;4.47;;;;;;;6.71;51.52;100042.97;4160494;28;20310;-62
2022/04/17 05:07:24;;;;;;;6.13;4.53;;;;;;;5.53;53.81;100087.56;4159944;28;20256;-61
2022/04/17 05:09:28;;;;;;;4.77;4.03;;;;;;;5.43;53.80;100122.53;4164503;28;20306;-61
2022/04/17 05:11:29;;;;;;;6.00;4.50;;;;;;;6.22;52.58;100062.84;4160340;28;20259;-61
2022/04/17 05:13:31;;;;;;;6.43;5.13;;;;;;;5.90;52.41;100103.19;4159559;28;20727;-61
2022/04/17 05:15:33;;;;;;;5.03;4.47;;;;;;;6.23;52.45;100070.63;4158419;28;20659;-61
2022/04/17 05:17:34;;;;;;;6.27;4.20;;;;;;;6.47;52.03;100078.38;4168163;28;20271;-61
2022/04/17 05:19:38;;;;;;;4.77;4.07;;;;;;;6.65;51.58;100064.63;4159736;28;20282;-61
2022/04/17 05:21:40;;;;;;;4.27;3.73;;;;;;;6.50;51.75;100064.91;4159130;28;20246;-61
2022/04/17 05:23:42;;;;;;;4.73;4.23;;;;;;;5.38;53.80;100090.41;4159949;28;20271;-61
2022/04/17 05:25:47;;;;;;;4.57;4.17;;;;;;;6.21;51.86;100100.75;4177852;28;20573;-60
2022/04/17 05:27:48;;;;;;;4.50;4.10;;;;;;;6.42;51.62;100082.38;4160199;28;20337;-60
2022/04/17 05:29:50;;;;;;;5.07;4.43;;;;;;;5.81;52.08;100141.69;4160654;28;20321;-61
2022/04/17 05:31:52;;;;;;;4.53;4.10;;;;;;;6.55;51.97;100061.88;4159603;28;20709;-60
2022/04/17 05:33:53;;;;;;;6.83;5.83;;;;;;;7.27;50.51;100045.34;4159534;28;20267;-61
2022/04/17 05:35:56;;;;;;;7.53;4.30;;;;;;;7.59;49.47;100072.69;4160140;28;20658;-61
2022/04/17 05:37:57;;;;;;;4.37;3.80;;;;;;;5.95;52.88;100145.91;4159865;28;20267;-61
2022/04/17 05:39:59;;;;;;;6.20;4.37;;;;;;;7.15;50.95;100059.59;4160081;28;20264;-60
2022/04/17 05:42:00;;;;;;;5.07;3.97;;;;;;;7.54;50.07;100066.94;4160939;28;20263;-61
2022/04/17 05:44:04;;;;;;;5.03;4.53;;;;;;;7.25;50.42;100113.41;4162706;28;20265;-60
2022/04/17 05:46:06;;;;;;;5.03;4.53;;;;;;;7.30;50.51;100109.56;4162016;28;20271;-61
2022/04/17 05:48:12;;;;;;;4.93;4.23;;;;;;;7.07;51.34;100121.09;4159780;28;20285;-61
2022/04/17 05:50:13;;;;;;;4.40;4.00;;;;;;;6.68;50.84;100146.28;4160314;28;20310;-61
2022/04/17 05:52:15;;;;;;;5.20;4.10;;;;;;;6.67;51.26;100115.53;4158651;28;20441;-60
2022/04/17 05:54:17;;;;;;;5.13;4.20;;;;;;;7.04;50.71;100096.69;4164789;28;20786;-61
2022/04/17 05:56:19;;;;;;;5.67;4.33;;;;;;;6.56;51.75;100126.16;4157852;28;20224;-61
2022/04/17 05:58:20;;;;;;;8.23;4.07;;;;;;;6.85;50.67;100081.47;4159128;28;20252;-61
2022/04/17 06:00:22;;;;;;;7.03;4.80;;;;;;;5.89;52.80;100119.97;4163525;28;20224;-62
2022/04/17 06:02:23;;;;;;;7.03;4.63;;;;;;;6.58;51.26;100116.28;4170130;28;20252;-60
2022/04/17 06:04:25;;;;;;;5.87;4.20;;;;;;;7.10;50.81;100064.44;4155094;28;20724;-60
2022/04/17 06:06:27;;;;;;;4.77;4.30;;;;;;;6.80;51.17;100075.72;4159512;28;20316;-61
2022/04/17 06:08:29;;;;;;;5.03;4.37;;;;;;;6.99;50.90;100083.88;4159164;28;20256;-61
2022/04/17 06:10:31;;;;;;;5.53;4.07;;;;;;;7.31;49.55;100090.06;4159660;28;20259;-61
2022/04/17 06:12:33;;;;;;;5.57;4.53;;;;;;;7.44;49.77;100064.25;4142932;28;20596;-60
2022/04/17 06:14:34;;;;;;;6.50;4.33;;;;;;;7.51;50.09;100062.72;4157830;28;20258;-61
2022/04/17 06:16:36;;;;;;;6.97;4.40;;;;;;;7.01;49.85;100132.16;4143631;28;20310;-61
2022/04/17 06:18:38;;;;;;;5.30;4.70;;;;;;;7.07;50.69;100091.16;4142497;28;20245;-61
2022/04/17 06:20:39;;;;;;;5.53;4.13;;;;;;;7.70;49.42;100056.72;4142631;28;20669;-61
2022/04/17 06:22:42;;;;;;;6.43;4.43;;;;;;;6.72;50.52;100164.44;4146325;28;20261;-61
2022/04/17 06:24:44;;;;;;;5.90;4.47;;;;;;;7.50;50.33;100084.06;4157345;28;20230;-61
2022/04/17 06:26:48;;;;;;;6.03;4.60;;;;;;;7.00;50.57;100085.53;4147773;28;20324;-61
2022/04/17 06:28:50;;;;;;;4.80;4.30;;;;;;;7.68;49.71;100073.69;4143583;28;20233;-61
2022/04/17 06:30:51;;;;;;;5.30;3.93;;;;;;;7.08;50.88;100093.66;4144687;28;20329;-61
2022/04/17 06:32:54;;;;;;;6.67;4.13;;;;;;;7.50;50.23;100079.59;4144079;28;20275;-61
2022/04/17 06:34:56;;;;;;;4.73;4.17;;;;;;;7.46;51.08;100084.31;4149759;28;20240;-61
2022/04/17 06:36:58;;;;;;;8.10;4.43;;;;;;;7.61;49.66;100068.09;4147441;28;20260;-61
2022/04/17 06:39:00;;;;;;;5.53;3.90;;;;;;;7.22;50.50;100111.00;4147800;28;20229;-62
2022/04/17 06:41:01;;;;;;;5.30;3.97;;;;;;;7.84;49.23;100088.09;4151729;28;20651;-61
2022/04/17 06:43:08;;;;;;;6.30;3.93;;;;;;;8.16;48.58;100087.13;4147392;28;20509;-60
2022/04/17 06:45:10;;;;;;;6.70;4.13;;;;;;;7.23;50.35;100110.06;4141996;28;20236;-60
2022/04/17 06:47:11;;;;;;;5.73;4.10;;;;;;;8.03;49.21;100058.22;4143921;28;20516;-61
2022/04/17 06:49:14;;;;;;;4.63;4.00;;;;;;;7.66;49.28;100137.34;4147272;28;20265;-62
2022/04/17 06:51:19;;;;;;;4.97;4.00;;;;;;;7.85;48.76;100081.03;4147916;28;20260;-61
2022/04/17 06:53:20;;;;;;;5.40;4.00;;;;;;;7.46;48.57;100131.09;4155604;28;20268;-61
2022/04/17 06:55:22;;;;;;;4.97;4.20;;;;;;;7.13;49.59;100114.44;4148810;28;20319;-61
2022/04/17 06:57:31;;;;;;;6.37;4.03;;;;;;;8.06;48.99;100083.59;4144897;28;20669;-60
2022/04/17 06:59:33;;;;;;;5.87;4.10;;;;;;;7.77;49.52;100086.16;4145712;28;20241;-61
2022/04/17 07:01:34;;;;;;;4.77;4.10;;;;;;;7.62;49.37;100142.06;4144463;28;20324;-62
2022/04/17 07:03:36;;;;;;;4.63;3.70;;;;;;;8.19;48.38;100055.06;4147903;28;20323;-61
2022/04/17 07:05:38;;;;;;;5.00;4.30;;;;;;;8.55;48.12;100055.41;4158060;28;20521;-62
2022/04/17 07:07:40;;;;;;;6.10;3.70;;;;;;;8.10;47.92;100105.34;4159676;28;20268;-62
2022/04/17 07:09:41;;;;;;;4.43;3.83;;;;;;;8.88;48.46;100060.44;4158054;28;20240;-62
2022/04/17 07:11:43;;;;;;;4.70;4.17;;;;;;;8.51;47.41;100111.50;4173207;28;20228;-61
2022/04/17 07:13:45;;;;;;;4.53;3.40;;;;;;;8.37;48.94;100084.41;4159413;28;20316;-61
2022/04/17 07:15:46;;;;;;;3.77;3.40;;;;;;;8.12;48.16;100164.31;4157292;28;20229;-62
2022/04/17 07:17:48;;;;;;;4.13;3.70;;;;;;;7.99;49.09;100115.06;4157694;28;20315;-59
2022/04/17 07:19:50;;;;;;;3.63;3.33;;;;;;;8.93;47.91;100092.72;4156748;28;20323;-62
2022/04/17 07:21:51;;;;;;;4.00;3.40;;;;;;;8.67;47.82;100113.63;4167897;28;20252;-61
2022/04/17 07:23:53;;;;;;;5.50;3.90;;;;;;;8.24;48.47;100091.75;4161644;28;20267;-62
2022/04/17 07:25:56;;;;;;;4.77;3.40;;;;;;;8.34;47.09;100084.69;4162486;28;20323;-62
2022/04/17 07:27:58;;;;;;;4.20;3.80;;;;;;;8.89;46.51;100086.81;4161795;28;20232;-58
2022/04/17 07:30:00;;;;;;;5.60;4.00;;;;;;;8.95;46.54;100067.72;4162577;28;20264;-60
2022/04/17 07:32:01;;;;;;;5.40;3.53;;;;;;;8.93;46.63;100092.72;4164300;28;20597;-60
2022/04/17 07:34:03;;;;;;;5.97;3.70;;;;;;;9.41;46.67;100049.31;4162976;28;20263;-62
2022/04/17 07:36:05;;;;;;;4.03;3.33;;;;;;;9.51;45.52;100079.34;4166563;28;20257;-59
2022/04/17 07:38:06;;;;;;;4.87;3.63;;;;;;;8.77;46.97;100163.00;4162788;28;20236;-62
2022/04/17 07:40:10;;;;;;;5.40;3.60;;;;;;;9.33;46.70;100070.44;4160486;28;20231;-61
2022/04/17 07:42:12;;;;;;;6.13;3.57;;;;;;;8.99;47.43;100092.13;4161120;28;20673;-61
2022/04/17 07:44:14;;;;;;;3.87;3.50;;;;;;;9.46;44.84;100078.94;4162515;28;20615;-61
2022/04/17 07:46:15;;;;;;;3.57;3.20;;;;;;;8.90;46.26;100087.69;4160909;28;20244;-61
2022/04/17 07:48:17;;;;;;;5.77;3.60;;;;;;;8.73;46.63;100115.72;4165935;28;20244;-61
2022/04/17 07:50:23;;;;;;;4.13;3.60;;;;;;;9.98;45.00;100056.44;4156329;28;20248;-61
2022/04/17 07:52:24;;;;;;;4.60;3.37;;;;;;;9.94;44.87;100061.19;4162524;28;20248;-60
2022/04/17 07:54:26;;;;;;;5.30;3.70;;;;;;;9.81;46.04;100061.53;4162139;28;20228;-61
2022/04/17 07:56:28;;;;;;;4.43;3.53;;;;;;;8.83;46.14;100185.50;4157975;28;20264;-61
2022/04/17 07:58:35;;;;;;;4.53;3.63;;;;;;;9.75;46.15;100095.78;4162630;28;20238;-62
2022/04/17 08:04:00;;;;;;;3.83;3.33;;;;;;;10.06;45.91;100036.09;4155981;28;20244;-61
2022/04/17 08:05:30;;;;;;;3.47;3.17;;;;;;;10.11;45.98;100037.47;4156161;28;20267;-61
2022/04/17 08:07:32;;;;;;;4.10;3.60;;;;;;;10.01;44.76;100080.00;4158097;28;20272;-61
2022/04/17 08:09:33;;;;;;;4.17;3.40;;;;;;;10.02;44.99;100069.25;4162396;28;20316;-61
2022/04/17 08:11:36;;;;;;;4.47;3.20;;;;;;;10.17;44.83;100050.16;4161581;28;20893;-62
2022/04/17 08:13:38;;;;;;;3.70;3.40;;;;;;;10.38;45.69;100105.69;4160936;28;20264;-61
2022/04/17 08:15:40;;;;;;;4.60;3.27;;;;;;;10.75;44.47;100059.53;4155462;28;20224;-61
2022/04/17 08:17:41;;;;;;;4.10;3.00;;;;;;;10.96;44.26;100052.09;4160033;28;20258;-61
2022/04/17 08:19:43;;;;;;;4.33;3.17;;;;;;;10.17;44.89;100138.69;4159976;28;20282;-60
2022/04/17 08:21:44;;;;;;;5.73;3.30;;;;;;;9.93;44.37;100154.31;4159996;28;20671;-61
2022/04/17 08:23:46;;;;;;;4.70;2.90;;;;;;;9.90;43.93;100151.94;4170224;28;20260;-61
2022/04/17 08:25:48;;;;;;;4.00;3.10;;;;;;;10.18;42.88;100132.38;4162711;28;20256;-58
2022/04/17 08:27:52;;;;;;;3.97;3.20;;;;;;;9.88;43.29;100176.81;4160966;28;20247;-61
2022/04/17 08:29:54;;;;;;;3.67;3.13;;;;;;;10.31;43.89;100094.00;4167020;28;20662;-61
2022/04/17 08:31:55;;;;;;;3.40;2.80;;;;;;;11.05;42.91;100037.03;4159372;28;20244;-60
2022/04/17 08:34:00;;;;;;;4.00;3.10;;;;;;;10.84;43.27;100101.22;4161431;28;20634;-61
2022/04/17 08:36:01;;;;;;;4.33;3.27;;;;;;;10.84;43.63;100065.81;4159948;28;20263;-61
2022/04/17 08:38:04;;;;;;;3.77;2.77;;;;;;;11.35;42.12;100045.56;4159630;28;20242;-60
2022/04/17 08:40:06;;;;;;;4.93;2.90;;;;;;;10.94;41.59;100104.63;4160229;28;20274;-61
2022/04/17 08:42:09;;;;;;;4.00;2.80;;;;;;;10.93;41.66;100121.59;4161070;28;20701;-61
2022/04/17 08:44:14;;;;;;;4.47;2.97;;;;;;;11.35;42.77;100064.19;4162589;28;20802;-62
2022/04/17 08:46:16;;;;;;;2.90;2.60;;;;;;;11.27;42.36;100059.63;4152927;28;20252;-61
2022/04/17 08:48:18;;;;;;;3.90;3.13;;;;;;;10.10;43.29;100184.59;4156360;28;20896;-61
2022/04/17 08:50:21;;;;;;;3.60;3.00;;;;;;;10.59;42.64;100095.63;4157207;28;20255;-61
2022/04/17 08:52:23;;;;;;;4.63;3.30;;;;;;;11.29;41.92;100049.69;4156988;28;20228;-61
2022/04/17 08:54:26;;;;;;;3.87;2.60;;;;;;;10.44;43.01;100121.88;4164711;28;20263;-61
2022/04/17 08:56:28;;;;;;;4.20;2.87;;;;;;;11.35;42.22;100069.53;4160423;28;20682;-62
2022/04/17 08:58:29;;;;;;;4.17;2.70;;;;;;;11.41;40.91;100039.63;4161072;28;20733;-61
2022/04/17 09:00:32;;;;;;;3.10;2.80;;;;;;;10.65;41.70;100096.88;4148996;28;20736;-59
2022/04/17 09:02:33;;;;;;;3.30;2.90;;;;;;;11.44;41.08;100055.28;4151018;28;20653;-61
2022/04/17 09:04:35;;;;;;;4.97;3.03;;;;;;;11.16;42.05;100119.28;4146007;28;20287;-60
2022/04/17 09:06:37;;;;;;;4.27;2.90;;;;;;;11.53;41.56;100075.63;4141678;28;20714;-60
2022/04/17 09:08:58;;;;;;;3.20;2.40;;;;;;;12.02;40.32;100013.78;4140089;28;20229;-60
2022/04/17 09:11:00;;;;;;;3.50;2.50;;;;;;;11.75;40.37;100041.47;4141958;28;20958;-61
2022/04/17 09:13:03;;;;;;;4.23;2.60;;;;;;;10.90;41.89;100132.56;4147281;28;20580;-61
2022/04/17 09:15:07;;;;;;;3.30;2.77;;;;;;;10.38;41.97;100156.19;4139935;28;20550;-61
2022/04/17 09:17:12;;;;;;;3.10;2.80;;;;;;;10.98;41.26;100134.44;4147982;28;20263;-60
2022/04/17 09:19:16;;;;;;;4.40;2.83;;;;;;;11.71;40.20;100059.59;4144543;28;20249;-61
2022/04/17 09:21:29;;;;;;;3.33;2.63;;;;;;;12.63;40.49;99970.88;4144453;28;20262;-61
2022/04/17 09:23:38;;;;;;;3.73;2.80;;;;;;;12.43;40.15;99992.53;4143608;28;20244;-61
2022/04/17 09:25:43;;;;;;;3.07;2.50;;;;;;;11.78;39.45;100082.91;4158524;28;20276;-61
2022/04/17 09:28:04;;;;;;;3.70;3.20;;;;;;;11.31;39.76;100132.91;4142336;28;20253;-61
2022/04/17 09:30:28;;;;;;;2.60;2.40;;;;;;;11.65;38.70;100092.19;4142261;28;20558;-61
2022/04/17 09:32:30;;;;;;;2.70;2.50;;;;;;;12.01;39.32;100027.25;4148643;28;20265;-61
2022/04/17 09:34:50;;;;;;;3.00;2.30;;;;;;;11.91;40.05;100051.38;4140005;28;20680;-61
2022/04/17 09:36:59;;;;;;;3.77;2.30;;;;;;;11.85;39.97;100044.03;4146685;28;20241;-61
2022/04/17 09:39:14;;;;;;;2.60;2.30;;;;;;;12.42;38.42;100001.53;4134892;28;20260;-61
2022/04/17 09:41:17;;;;;;;3.70;2.30;;;;;;;12.99;39.60;99973.19;4137141;28;20291;-60
2022/04/17 09:43:19;;;;;;;2.90;2.20;;;;;;;12.68;38.95;100024.56;4155055;23;20230;-37
2022/04/17 09:45:21;;;;;;;2.50;2.30;;;;;;;12.11;38.68;100098.09;4127530;28;20690;-34
2022/04/17 09:47:28;;;;;;;3.30;2.30;;;;;;;12.36;37.36;100063.53;4129301;28;20225;-33
2022/04/17 09:49:49;;;;;;;4.03;2.17;;;;;;;12.78;38.06;100013.72;4131582;28;20239;-32
2022/04/17 09:52:08;;;;;;;2.93;2.13;;;;;;;12.93;38.44;100011.25;4131136;28;20284;-38